This is the latest recevied weather packets stored in our database for station/object DK6MR. If no packets are shown the sender has not sent any weather packets the latest 10 day(s).
| Time | Temp. | Humidity | Pressure | Rain* | Wind** | Luminosity | Snow |
|---|---|---|---|---|---|---|---|
| 1777625656 | 18.33° C | 30% | 1024.7 hPa | 0 mm | - | - | - |
| 1777624755 | 17.22° C | 32% | 1024.7 hPa | 0 mm | - | - | - |
| 1777623854 | 17.22° C | 32% | 1025 hPa | 0 mm | - | - | - |
| 1777622953 | 16.67° C | 32% | 1025 hPa | 0 mm | - | - | - |
| 1777622052 | 17.22° C | 33% | 1025 hPa | 0 mm | - | - | - |
| 1777621151 | 16.67° C | 33% | 1025 hPa | 0 mm | - | - | - |
| 1777620250 | 16.11° C | 34% | 1025 hPa | 0 mm | - | - | - |
| 1777619349 | 15° C | 36% | 1025 hPa | 0 mm | - | - | - |
| 1777618448 | 13.33° C | 47% | 1025 hPa | 0 mm | - | - | - |
| 1777617547 | 12.78° C | 49% | 1025 hPa | 0 mm | - | - | - |
| 1777616646 | 13.89° C | 47% | 1025 hPa | 0 mm | - | - | - |
| 1777615745 | 13.33° C | 49% | 1025 hPa | 0 mm | - | - | - |
| 1777614844 | 11.67° C | 53% | 1025 hPa | 0 mm | - | - | - |
| 1777613943 | 12.22° C | 53% | 1025 hPa | 0 mm | - | - | - |
| 1777613042 | 11.67° C | 55% | 1025 hPa | 0 mm | - | - | - |
| 1777612141 | 8.89° C | 60% | 1025 hPa | 0 mm | - | - | - |
| 1777611239 | 8.89° C | 62% | 1024.7 hPa | 0 mm | - | - | - |
| 1777610339 | 8.33° C | 63% | 1024.7 hPa | 0 mm | - | - | - |
| 1777609437 | 7.78° C | 63% | 1024.7 hPa | 0 mm | - | - | - |
| 1777608536 | 7.78° C | 64% | 1024.7 hPa | 0 mm | - | - | - |
| 1777607636 | 8.33° C | 62% | 1024.7 hPa | 0 mm | - | - | - |
| 1777606735 | 8.33° C | 63% | 1024.7 hPa | 0 mm | - | - | - |
| 1777605834 | 8.89° C | 61% | 1024.7 hPa | 0 mm | - | - | - |
| 1777604933 | 9.44° C | 59% | 1024.7 hPa | 0 mm | - | - | - |
| 1777604032 | 10° C | 59% | 1024.7 hPa | 0 mm | - | - | - |
* Rain latest hour (hover to see other rain measurements)
** Current wind speed in m/s (hover to see current wind gust speed)